Flight Track Log - Related Links

Times and Time Zones

All times are in EDT time to prevent confusion due to time zone crossing. See the JIA2259 flight status page for this flight to view local times or setup timezone preferences in your user account.

Time Position Orientation Groundspeed Altitude Reporting Facility
EDT Latitude Longitude Course Direction KTS MPH feet Rate Location/Type
Fri 11:07:28 PM 35.2303 -80.9242 180° South 146 168 1,700  Level Atlanta Center
Fri 11:08:40 PM 35.2289 -80.8733 92° East 198 228 4,500 2,462 Climbing Atlanta Center
Fri 11:09:00 PM 34.9137 -80.9745 175° South  Level Estimated
Fri 11:09:25 PM 35.1808 -80.8750 182° South 210 242 6,500  Level Atlanta Center
Fri 11:09:41 PM 35.1642 -80.8758 182° South 242 278 6,800 2,200 Climbing Atlanta Center
Fri 11:10:00 PM 34.8299 -80.9073 147° Southeast  Level FlightAware Approximate
Fri 11:10:25 PM 35.0994 -80.8756 180° South 269 310 8,700  Level Atlanta Center
Fri 11:10:42 PM 35.0956 -80.8783 210° Southwest 282 325 9,700 2,400 Climbing Atlanta Center
Fri 11:11:00 PM 34.7300 -80.9185 180° South  Level Estimated
Fri 11:11:25 PM 35.0308 -80.8808 182° South 275 316 11,100  Level Atlanta Center
Fri 11:12:00 PM 34.6302 -80.9297 180° South  Level Estimated
Fri 11:12:25 PM 34.9475 -80.8864 183° South 349 402 13,400  Level Atlanta Center
Fri 11:14:08 PM 34.7844 -80.8931 182° South 346 398 16,700 1,877 Climbing Jacksonville Center
Fri 11:15:08 PM 34.6844 -80.9081 187° South 351 404 18,500 1,700 Climbing Jacksonville Center
Fri 11:16:08 PM 34.5783 -80.9231 187° South 372 428 20,100 1,700 Climbing Jacksonville Center
Fri 11:17:08 PM 34.4719 -80.9256 181° South 388 447 21,900 950 Climbing Jacksonville Center
Fri 11:18:08 PM 34.3617 -80.9431 187° South 393 452 22,000 50 Climbing Jacksonville Center
Fri 11:19:08 PM 34.2597 -80.9556 186° South 394 453 22,000  Level Jacksonville Center
Fri 11:20:08 PM 34.1514 -80.9678 185° South 387 445 22,000  Level Jacksonville Center
Fri 11:21:08 PM 34.0453 -80.9828 187° South 387 445 22,000  Level Jacksonville Center
Fri 11:22:08 PM 33.9347 -80.9978 186° South 387 445 22,000  Level Jacksonville Center
Fri 11:23:08 PM 33.8286 -81.0100 185° South 387 445 22,000  Level Jacksonville Center
Fri 11:24:08 PM 33.7203 -81.0197 184° South 387 445 22,000  Level Jacksonville Center
Fri 11:25:08 PM 33.6139 -81.0319 185° South 387 445 22,000  Level Jacksonville Center
Fri 11:26:08 PM 33.5078 -81.0467 187° South 387 445 22,000  Level Jacksonville Center
Fri 11:27:08 PM 33.4017 -81.0589 185° South 387 445 22,000  Level Jacksonville Center
Fri 11:28:08 PM 33.2931 -81.0711 185° South 387 445 22,000 -100 Level Jacksonville Center
Fri 11:29:08 PM 33.1869 -81.0831 185° South 387 445 21,800 -1,350 Descending Jacksonville Center
Fri 11:30:08 PM 33.0828 -81.0953 186° South 387 445 19,300 -2,350 Descending Jacksonville Center
Fri 11:31:08 PM 32.9869 -81.1069 186° South 387 445 17,100 -2,350 Descending Jacksonville Center
Fri 11:32:08 PM 32.8847 -81.1164 184° South 387 445 14,600 -2,350 Descending Jacksonville Center
Fri 11:33:08 PM 32.7847 -81.1283 186° South 380 437 12,400 -1,950 Descending Jacksonville Center
Fri 11:34:08 PM 32.6953 -81.1622 198° South 360 414 10,700 -1,450 Descending Jacksonville Center
Fri 11:35:08 PM 32.6233 -81.2300 218° Southwest 320 368 9,500 -1,300 Descending Jacksonville Center
Fri 11:36:08 PM 32.5719 -81.2903 225° Southwest 297 342 8,100 -1,500 Descending Jacksonville Center
Fri 11:37:08 PM 32.4997 -81.3556 217° Southwest 297 342 6,500 -1,450 Descending Jacksonville Center
Fri 11:38:08 PM 32.4356 -81.4083 215° Southwest 285 328 5,200 -1,350 Descending Jacksonville Center
Fri 11:39:08 PM 32.3669 -81.4339 197° South 265 305 3,800 -1,150 Descending Jacksonville Center
Fri 11:40:08 PM 32.3044 -81.4450 189° South 260 299 2,900 -650 Descending Jacksonville Center
Fri 11:41:08 PM 32.2356 -81.4533 186° South 260 299 2,500 -400 Descending Jacksonville Center
Fri 11:42:08 PM 32.1644 -81.4469 176° South 240 276 2,100 -400 Descending Jacksonville Center

Login

Don't have an account? Register now (free) for customized features, flight alerts, and more!